sensor_id;sensor_type;location;lat;lon;timestamp;P1;durP1;ratioP1;P2;durP2;ratioP2
41687;SDS011;27371;42.686;23.362;2024-01-25T00:02:24;25.70;;;14.00;;
41687;SDS011;27371;42.686;23.362;2024-01-25T00:04:49;23.38;;;14.00;;
41687;SDS011;27371;42.686;23.362;2024-01-25T00:07:15;21.95;;;12.38;;
41687;SDS011;27371;42.686;23.362;2024-01-25T00:09:40;19.70;;;12.00;;
41687;SDS011;27371;42.686;23.362;2024-01-25T00:12:05;23.13;;;12.13;;
41687;SDS011;27371;42.686;23.362;2024-01-25T00:14:31;19.02;;;11.20;;
41687;SDS011;27371;42.686;23.362;2024-01-25T00:16:56;19.80;;;11.88;;
41687;SDS011;27371;42.686;23.362;2024-01-25T00:19:21;20.85;;;12.77;;
41687;SDS011;27371;42.686;23.362;2024-01-25T00:21:47;19.00;;;11.85;;
41687;SDS011;27371;42.686;23.362;2024-01-25T00:24:12;19.98;;;12.27;;
41687;SDS011;27371;42.686;23.362;2024-01-25T00:26:38;19.65;;;10.75;;
41687;SDS011;27371;42.686;23.362;2024-01-25T00:29:04;19.15;;;11.48;;
41687;SDS011;27371;42.686;23.362;2024-01-25T00:31:29;20.50;;;11.27;;
41687;SDS011;27371;42.686;23.362;2024-01-25T00:33:55;21.80;;;11.43;;
41687;SDS011;27371;42.686;23.362;2024-01-25T00:36:20;20.45;;;10.30;;
41687;SDS011;27371;42.686;23.362;2024-01-25T00:38:46;20.15;;;11.88;;
41687;SDS011;27371;42.686;23.362;2024-01-25T00:41:12;18.70;;;10.25;;
41687;SDS011;27371;42.686;23.362;2024-01-25T00:43:42;18.30;;;9.45;;
41687;SDS011;27371;42.686;23.362;2024-01-25T00:46:07;17.02;;;10.10;;
41687;SDS011;27371;42.686;23.362;2024-01-25T00:48:33;18.60;;;10.45;;
41687;SDS011;27371;42.686;23.362;2024-01-25T00:50:58;18.50;;;11.13;;
41687;SDS011;27371;42.686;23.362;2024-01-25T00:53:24;16.88;;;10.15;;
41687;SDS011;27371;42.686;23.362;2024-01-25T00:55:49;19.60;;;10.27;;
41687;SDS011;27371;42.686;23.362;2024-01-25T00:58:15;19.77;;;11.57;;
41687;SDS011;27371;42.686;23.362;2024-01-25T01:03:15;19.83;;;11.20;;
41687;SDS011;27371;42.686;23.362;2024-01-25T01:05:42;19.13;;;11.45;;
41687;SDS011;27371;42.686;23.362;2024-01-25T01:08:08;19.42;;;11.52;;
41687;SDS011;27371;42.686;23.362;2024-01-25T01:10:33;23.08;;;12.50;;
41687;SDS011;27371;42.686;23.362;2024-01-25T01:12:59;20.90;;;12.52;;
41687;SDS011;27371;42.686;23.362;2024-01-25T01:15:24;21.00;;;13.05;;
41687;SDS011;27371;42.686;23.362;2024-01-25T01:17:49;23.38;;;12.93;;
41687;SDS011;27371;42.686;23.362;2024-01-25T01:20:15;23.08;;;14.02;;
41687;SDS011;27371;42.686;23.362;2024-01-25T01:22:40;23.23;;;13.75;;
41687;SDS011;27371;42.686;23.362;2024-01-25T01:25:08;18.40;;;11.88;;
41687;SDS011;27371;42.686;23.362;2024-01-25T01:27:33;21.38;;;12.07;;
41687;SDS011;27371;42.686;23.362;2024-01-25T01:29:59;20.15;;;12.48;;
41687;SDS011;27371;42.686;23.362;2024-01-25T01:32:24;20.20;;;11.52;;
41687;SDS011;27371;42.686;23.362;2024-01-25T01:34:50;23.70;;;12.07;;
41687;SDS011;27371;42.686;23.362;2024-01-25T01:37:15;21.10;;;12.05;;
41687;SDS011;27371;42.686;23.362;2024-01-25T01:39:40;23.85;;;12.55;;
41687;SDS011;27371;42.686;23.362;2024-01-25T01:42:06;22.08;;;12.52;;
41687;SDS011;27371;42.686;23.362;2024-01-25T01:44:31;22.05;;;13.02;;
41687;SDS011;27371;42.686;23.362;2024-01-25T01:46:57;24.55;;;13.80;;
41687;SDS011;27371;42.686;23.362;2024-01-25T01:49:23;25.33;;;15.10;;
41687;SDS011;27371;42.686;23.362;2024-01-25T01:51:48;25.98;;;15.48;;
41687;SDS011;27371;42.686;23.362;2024-01-25T01:54:14;29.40;;;16.35;;
41687;SDS011;27371;42.686;23.362;2024-01-25T01:56:39;28.38;;;15.80;;
41687;SDS011;27371;42.686;23.362;2024-01-25T01:59:05;26.85;;;14.98;;
41687;SDS011;27371;42.686;23.362;2024-01-25T02:01:33;27.75;;;15.77;;
41687;SDS011;27371;42.686;23.362;2024-01-25T02:03:58;25.85;;;14.93;;
41687;SDS011;27371;42.686;23.362;2024-01-25T02:06:24;24.40;;;14.38;;
41687;SDS011;27371;42.686;23.362;2024-01-25T02:08:49;26.60;;;14.52;;
41687;SDS011;27371;42.686;23.362;2024-01-25T02:11:24;23.13;;;13.43;;
41687;SDS011;27371;42.686;23.362;2024-01-25T02:13:49;21.83;;;13.02;;
41687;SDS011;27371;42.686;23.362;2024-01-25T02:16:16;22.77;;;11.80;;
41687;SDS011;27371;42.686;23.362;2024-01-25T02:18:42;23.85;;;12.93;;
41687;SDS011;27371;42.686;23.362;2024-01-25T02:21:08;19.98;;;12.52;;
41687;SDS011;27371;42.686;23.362;2024-01-25T02:23:33;23.70;;;12.38;;
41687;SDS011;27371;42.686;23.362;2024-01-25T02:25:59;25.10;;;12.77;;
41687;SDS011;27371;42.686;23.362;2024-01-25T02:28:24;22.27;;;12.75;;
41687;SDS011;27371;42.686;23.362;2024-01-25T02:30:50;26.13;;;13.57;;
41687;SDS011;27371;42.686;23.362;2024-01-25T02:33:15;23.83;;;13.35;;
41687;SDS011;27371;42.686;23.362;2024-01-25T02:35:40;20.95;;;11.70;;
41687;SDS011;27371;42.686;23.362;2024-01-25T02:38:06;23.45;;;13.65;;
41687;SDS011;27371;42.686;23.362;2024-01-25T02:40:31;25.83;;;14.00;;
41687;SDS011;27371;42.686;23.362;2024-01-25T02:42:57;30.10;;;15.55;;
41687;SDS011;27371;42.686;23.362;2024-01-25T02:45:22;26.83;;;15.27;;
41687;SDS011;27371;42.686;23.362;2024-01-25T02:47:48;24.13;;;14.23;;
41687;SDS011;27371;42.686;23.362;2024-01-25T02:50:14;22.63;;;13.27;;
41687;SDS011;27371;42.686;23.362;2024-01-25T02:52:39;22.35;;;13.32;;
41687;SDS011;27371;42.686;23.362;2024-01-25T02:55:05;21.38;;;11.00;;
41687;SDS011;27371;42.686;23.362;2024-01-25T02:57:30;18.30;;;10.63;;
41687;SDS011;27371;42.686;23.362;2024-01-25T02:59:56;17.40;;;10.30;;
41687;SDS011;27371;42.686;23.362;2024-01-25T03:02:22;15.15;;;9.43;;
41687;SDS011;27371;42.686;23.362;2024-01-25T03:04:47;17.45;;;9.20;;
41687;SDS011;27371;42.686;23.362;2024-01-25T03:07:13;18.00;;;9.60;;
41687;SDS011;27371;42.686;23.362;2024-01-25T03:09:38;18.85;;;9.75;;
41687;SDS011;27371;42.686;23.362;2024-01-25T03:12:04;16.48;;;9.32;;
41687;SDS011;27371;42.686;23.362;2024-01-25T03:14:29;13.98;;;8.10;;
41687;SDS011;27371;42.686;23.362;2024-01-25T03:16:54;18.08;;;9.63;;
41687;SDS011;27371;42.686;23.362;2024-01-25T03:19:20;15.00;;;9.60;;
41687;SDS011;27371;42.686;23.362;2024-01-25T03:21:45;16.52;;;9.10;;
41687;SDS011;27371;42.686;23.362;2024-01-25T03:24:10;18.30;;;9.07;;
41687;SDS011;27371;42.686;23.362;2024-01-25T03:26:36;12.57;;;7.25;;
41687;SDS011;27371;42.686;23.362;2024-01-25T03:29:01;9.10;;;5.00;;
41687;SDS011;27371;42.686;23.362;2024-01-25T03:31:27;6.55;;;3.75;;
41687;SDS011;27371;42.686;23.362;2024-01-25T03:33:52;4.68;;;2.60;;
41687;SDS011;27371;42.686;23.362;2024-01-25T03:36:18;2.60;;;1.38;;
41687;SDS011;27371;42.686;23.362;2024-01-25T03:38:43;3.53;;;1.10;;
41687;SDS011;27371;42.686;23.362;2024-01-25T03:41:08;2.13;;;0.80;;
41687;SDS011;27371;42.686;23.362;2024-01-25T03:43:34;1.92;;;0.70;;
41687;SDS011;27371;42.686;23.362;2024-01-25T03:46:00;3.75;;;0.63;;
41687;SDS011;27371;42.686;23.362;2024-01-25T03:48:25;1.90;;;0.88;;
41687;SDS011;27371;42.686;23.362;2024-01-25T03:50:51;1.60;;;0.90;;
41687;SDS011;27371;42.686;23.362;2024-01-25T03:53:16;1.25;;;0.60;;
41687;SDS011;27371;42.686;23.362;2024-01-25T03:55:41;2.88;;;0.90;;
41687;SDS011;27371;42.686;23.362;2024-01-25T03:58:07;4.18;;;0.98;;
41687;SDS011;27371;42.686;23.362;2024-01-25T04:00:33;1.88;;;0.70;;
41687;SDS011;27371;42.686;23.362;2024-01-25T04:02:58;2.92;;;0.77;;
41687;SDS011;27371;42.686;23.362;2024-01-25T04:05:24;2.03;;;0.88;;
41687;SDS011;27371;42.686;23.362;2024-01-25T04:07:51;1.58;;;0.82;;
41687;SDS011;27371;42.686;23.362;2024-01-25T04:10:16;2.42;;;1.15;;
41687;SDS011;27371;42.686;23.362;2024-01-25T04:12:42;3.38;;;1.58;;
41687;SDS011;27371;42.686;23.362;2024-01-25T04:15:07;2.63;;;1.40;;
41687;SDS011;27371;42.686;23.362;2024-01-25T04:17:33;4.15;;;1.90;;
41687;SDS011;27371;42.686;23.362;2024-01-25T04:19:59;5.03;;;1.98;;
41687;SDS011;27371;42.686;23.362;2024-01-25T04:22:24;5.32;;;1.88;;
41687;SDS011;27371;42.686;23.362;2024-01-25T04:24:49;5.03;;;2.03;;
41687;SDS011;27371;42.686;23.362;2024-01-25T04:27:15;5.50;;;2.33;;
41687;SDS011;27371;42.686;23.362;2024-01-25T04:29:40;5.15;;;2.20;;
41687;SDS011;27371;42.686;23.362;2024-01-25T04:32:07;6.22;;;2.30;;
41687;SDS011;27371;42.686;23.362;2024-01-25T04:34:32;7.78;;;3.10;;
41687;SDS011;27371;42.686;23.362;2024-01-25T04:36:57;4.63;;;1.95;;
41687;SDS011;27371;42.686;23.362;2024-01-25T04:39:23;4.75;;;1.98;;
41687;SDS011;27371;42.686;23.362;2024-01-25T04:41:48;4.65;;;2.20;;
41687;SDS011;27371;42.686;23.362;2024-01-25T04:44:14;4.57;;;2.47;;
41687;SDS011;27371;42.686;23.362;2024-01-25T04:46:39;5.25;;;2.00;;
41687;SDS011;27371;42.686;23.362;2024-01-25T04:49:04;5.45;;;2.25;;
41687;SDS011;27371;42.686;23.362;2024-01-25T04:51:30;5.22;;;1.98;;
41687;SDS011;27371;42.686;23.362;2024-01-25T04:53:55;4.88;;;2.28;;
41687;SDS011;27371;42.686;23.362;2024-01-25T04:56:20;4.85;;;2.38;;
41687;SDS011;27371;42.686;23.362;2024-01-25T04:58:46;7.13;;;2.20;;
41687;SDS011;27371;42.686;23.362;2024-01-25T05:01:11;4.60;;;2.45;;
41687;SDS011;27371;42.686;23.362;2024-01-25T05:03:36;8.32;;;2.83;;
41687;SDS011;27371;42.686;23.362;2024-01-25T05:06:02;6.07;;;2.75;;
41687;SDS011;27371;42.686;23.362;2024-01-25T05:08:27;7.57;;;2.83;;
41687;SDS011;27371;42.686;23.362;2024-01-25T05:10:53;5.75;;;2.40;;
41687;SDS011;27371;42.686;23.362;2024-01-25T05:13:18;3.78;;;1.92;;
41687;SDS011;27371;42.686;23.362;2024-01-25T05:15:44;6.30;;;2.33;;
41687;SDS011;27371;42.686;23.362;2024-01-25T05:18:09;5.65;;;3.40;;
41687;SDS011;27371;42.686;23.362;2024-01-25T05:20:34;5.50;;;2.20;;
41687;SDS011;27371;42.686;23.362;2024-01-25T05:23:02;4.72;;;2.30;;
41687;SDS011;27371;42.686;23.362;2024-01-25T05:25:28;4.60;;;1.80;;
41687;SDS011;27371;42.686;23.362;2024-01-25T05:27:53;5.40;;;2.60;;
41687;SDS011;27371;42.686;23.362;2024-01-25T05:30:19;5.75;;;2.25;;
41687;SDS011;27371;42.686;23.362;2024-01-25T05:32:44;4.07;;;1.80;;
41687;SDS011;27371;42.686;23.362;2024-01-25T05:35:11;4.97;;;1.92;;
41687;SDS011;27371;42.686;23.362;2024-01-25T05:37:36;6.45;;;1.60;;
41687;SDS011;27371;42.686;23.362;2024-01-25T05:40:02;5.53;;;1.92;;
41687;SDS011;27371;42.686;23.362;2024-01-25T05:42:27;5.63;;;1.80;;
41687;SDS011;27371;42.686;23.362;2024-01-25T05:44:53;4.90;;;1.65;;
41687;SDS011;27371;42.686;23.362;2024-01-25T05:47:18;4.40;;;1.65;;
41687;SDS011;27371;42.686;23.362;2024-01-25T05:49:43;6.25;;;1.50;;
41687;SDS011;27371;42.686;23.362;2024-01-25T05:52:12;6.03;;;1.60;;
41687;SDS011;27371;42.686;23.362;2024-01-25T05:54:37;5.82;;;2.45;;
41687;SDS011;27371;42.686;23.362;2024-01-25T05:57:03;6.18;;;1.55;;
41687;SDS011;27371;42.686;23.362;2024-01-25T05:59:29;4.72;;;1.35;;
41687;SDS011;27371;42.686;23.362;2024-01-25T06:01:54;4.25;;;1.90;;
41687;SDS011;27371;42.686;23.362;2024-01-25T06:04:20;6.30;;;1.75;;
41687;SDS011;27371;42.686;23.362;2024-01-25T06:06:45;4.70;;;1.52;;
41687;SDS011;27371;42.686;23.362;2024-01-25T06:09:10;8.02;;;1.90;;
41687;SDS011;27371;42.686;23.362;2024-01-25T06:11:38;3.70;;;1.52;;
41687;SDS011;27371;42.686;23.362;2024-01-25T06:14:04;5.03;;;2.10;;
41687;SDS011;27371;42.686;23.362;2024-01-25T06:16:30;5.35;;;2.33;;
41687;SDS011;27371;42.686;23.362;2024-01-25T06:18:56;6.00;;;2.55;;
41687;SDS011;27371;42.686;23.362;2024-01-25T06:21:21;5.70;;;2.38;;
41687;SDS011;27371;42.686;23.362;2024-01-25T06:23:46;7.97;;;3.03;;
41687;SDS011;27371;42.686;23.362;2024-01-25T06:26:12;5.55;;;2.78;;
41687;SDS011;27371;42.686;23.362;2024-01-25T06:28:37;7.82;;;2.88;;
41687;SDS011;27371;42.686;23.362;2024-01-25T06:31:03;4.47;;;2.03;;
41687;SDS011;27371;42.686;23.362;2024-01-25T06:33:28;3.35;;;1.77;;
41687;SDS011;27371;42.686;23.362;2024-01-25T06:35:55;4.35;;;1.90;;
41687;SDS011;27371;42.686;23.362;2024-01-25T06:38:20;6.38;;;2.00;;
41687;SDS011;27371;42.686;23.362;2024-01-25T06:40:46;4.72;;;2.15;;
41687;SDS011;27371;42.686;23.362;2024-01-25T06:43:12;6.05;;;1.92;;
41687;SDS011;27371;42.686;23.362;2024-01-25T06:45:37;5.20;;;1.80;;
41687;SDS011;27371;42.686;23.362;2024-01-25T06:48:05;5.13;;;2.13;;
41687;SDS011;27371;42.686;23.362;2024-01-25T06:50:30;4.60;;;1.60;;
41687;SDS011;27371;42.686;23.362;2024-01-25T06:52:56;5.22;;;2.38;;
41687;SDS011;27371;42.686;23.362;2024-01-25T06:55:21;5.70;;;2.25;;
41687;SDS011;27371;42.686;23.362;2024-01-25T06:57:47;7.80;;;2.13;;
41687;SDS011;27371;42.686;23.362;2024-01-25T07:00:12;7.40;;;2.03;;
41687;SDS011;27371;42.686;23.362;2024-01-25T07:02:40;5.45;;;1.92;;
41687;SDS011;27371;42.686;23.362;2024-01-25T07:05:05;6.28;;;1.90;;
41687;SDS011;27371;42.686;23.362;2024-01-25T07:07:31;7.63;;;2.42;;
41687;SDS011;27371;42.686;23.362;2024-01-25T07:09:57;9.25;;;2.50;;
41687;SDS011;27371;42.686;23.362;2024-01-25T07:12:23;5.80;;;2.35;;
41687;SDS011;27371;42.686;23.362;2024-01-25T07:14:48;4.32;;;1.90;;
41687;SDS011;27371;42.686;23.362;2024-01-25T07:17:14;7.68;;;2.35;;
41687;SDS011;27371;42.686;23.362;2024-01-25T07:19:39;6.45;;;1.88;;
41687;SDS011;27371;42.686;23.362;2024-01-25T07:22:04;2.92;;;1.33;;
41687;SDS011;27371;42.686;23.362;2024-01-25T07:24:30;5.60;;;2.15;;
41687;SDS011;27371;42.686;23.362;2024-01-25T07:26:56;5.05;;;1.83;;
41687;SDS011;27371;42.686;23.362;2024-01-25T07:29:21;7.75;;;2.22;;
41687;SDS011;27371;42.686;23.362;2024-01-25T07:31:46;6.53;;;2.25;;
41687;SDS011;27371;42.686;23.362;2024-01-25T07:34:12;5.60;;;2.10;;
41687;SDS011;27371;42.686;23.362;2024-01-25T07:36:37;10.32;;;3.15;;
41687;SDS011;27371;42.686;23.362;2024-01-25T07:39:03;5.40;;;1.65;;
41687;SDS011;27371;42.686;23.362;2024-01-25T07:41:28;6.32;;;1.83;;
41687;SDS011;27371;42.686;23.362;2024-01-25T07:43:53;10.00;;;2.25;;
41687;SDS011;27371;42.686;23.362;2024-01-25T07:46:20;9.15;;;2.20;;
41687;SDS011;27371;42.686;23.362;2024-01-25T07:48:45;8.25;;;2.92;;
41687;SDS011;27371;42.686;23.362;2024-01-25T07:51:11;9.65;;;3.30;;
41687;SDS011;27371;42.686;23.362;2024-01-25T07:53:38;9.88;;;3.20;;
41687;SDS011;27371;42.686;23.362;2024-01-25T07:56:03;6.97;;;2.97;;
41687;SDS011;27371;42.686;23.362;2024-01-25T07:58:31;8.95;;;3.22;;
41687;SDS011;27371;42.686;23.362;2024-01-25T08:00:56;6.68;;;3.53;;
41687;SDS011;27371;42.686;23.362;2024-01-25T08:03:21;11.73;;;3.20;;
41687;SDS011;27371;42.686;23.362;2024-01-25T08:05:47;9.27;;;2.78;;
41687;SDS011;27371;42.686;23.362;2024-01-25T08:08:12;10.10;;;2.40;;
41687;SDS011;27371;42.686;23.362;2024-01-25T08:10:38;9.65;;;3.45;;
41687;SDS011;27371;42.686;23.362;2024-01-25T08:13:03;6.35;;;2.05;;
41687;SDS011;27371;42.686;23.362;2024-01-25T08:15:28;7.22;;;2.55;;
41687;SDS011;27371;42.686;23.362;2024-01-25T08:17:54;6.30;;;2.63;;
41687;SDS011;27371;42.686;23.362;2024-01-25T08:20:19;7.00;;;2.50;;
41687;SDS011;27371;42.686;23.362;2024-01-25T08:22:45;7.85;;;3.10;;
41687;SDS011;27371;42.686;23.362;2024-01-25T08:25:10;9.85;;;2.83;;
41687;SDS011;27371;42.686;23.362;2024-01-25T08:27:38;6.20;;;2.25;;
41687;SDS011;27371;42.686;23.362;2024-01-25T08:30:04;6.43;;;1.92;;
41687;SDS011;27371;42.686;23.362;2024-01-25T08:32:29;8.70;;;2.45;;
41687;SDS011;27371;42.686;23.362;2024-01-25T08:34:55;7.80;;;2.28;;
41687;SDS011;27371;42.686;23.362;2024-01-25T08:37:20;5.07;;;1.83;;
41687;SDS011;27371;42.686;23.362;2024-01-25T08:39:45;9.23;;;2.88;;
41687;SDS011;27371;42.686;23.362;2024-01-25T08:42:15;10.40;;;2.83;;
41687;SDS011;27371;42.686;23.362;2024-01-25T08:44:40;8.57;;;2.70;;
41687;SDS011;27371;42.686;23.362;2024-01-25T08:47:09;8.60;;;2.70;;
41687;SDS011;27371;42.686;23.362;2024-01-25T08:49:37;8.63;;;2.72;;
41687;SDS011;27371;42.686;23.362;2024-01-25T08:52:03;8.00;;;3.47;;
41687;SDS011;27371;42.686;23.362;2024-01-25T08:54:28;8.68;;;2.55;;
41687;SDS011;27371;42.686;23.362;2024-01-25T08:56:53;6.70;;;3.03;;
41687;SDS011;27371;42.686;23.362;2024-01-25T08:59:19;9.85;;;2.83;;
41687;SDS011;27371;42.686;23.362;2024-01-25T09:01:44;10.38;;;4.32;;
41687;SDS011;27371;42.686;23.362;2024-01-25T09:04:10;11.43;;;3.22;;
41687;SDS011;27371;42.686;23.362;2024-01-25T09:06:35;11.50;;;3.30;;
41687;SDS011;27371;42.686;23.362;2024-01-25T09:09:00;9.57;;;3.17;;
41687;SDS011;27371;42.686;23.362;2024-01-25T09:11:26;10.00;;;2.88;;
41687;SDS011;27371;42.686;23.362;2024-01-25T09:13:51;8.70;;;2.45;;
41687;SDS011;27371;42.686;23.362;2024-01-25T09:16:16;10.80;;;2.83;;
41687;SDS011;27371;42.686;23.362;2024-01-25T09:18:42;9.15;;;2.90;;
41687;SDS011;27371;42.686;23.362;2024-01-25T09:21:07;8.32;;;2.60;;
41687;SDS011;27371;42.686;23.362;2024-01-25T09:23:33;9.73;;;2.63;;
41687;SDS011;27371;42.686;23.362;2024-01-25T09:25:58;8.07;;;2.17;;
41687;SDS011;27371;42.686;23.362;2024-01-25T09:28:23;10.65;;;3.38;;
41687;SDS011;27371;42.686;23.362;2024-01-25T09:30:49;7.93;;;2.38;;
41687;SDS011;27371;42.686;23.362;2024-01-25T09:33:14;7.88;;;2.85;;
41687;SDS011;27371;42.686;23.362;2024-01-25T09:35:40;8.68;;;2.30;;
41687;SDS011;27371;42.686;23.362;2024-01-25T09:38:06;7.18;;;2.53;;
41687;SDS011;27371;42.686;23.362;2024-01-25T09:40:31;8.98;;;2.63;;
41687;SDS011;27371;42.686;23.362;2024-01-25T09:42:58;6.55;;;2.55;;
41687;SDS011;27371;42.686;23.362;2024-01-25T09:45:23;9.73;;;3.15;;
41687;SDS011;27371;42.686;23.362;2024-01-25T09:47:49;6.47;;;2.22;;
41687;SDS011;27371;42.686;23.362;2024-01-25T09:50:14;5.22;;;2.05;;
41687;SDS011;27371;42.686;23.362;2024-01-25T09:52:41;7.90;;;2.88;;
41687;SDS011;27371;42.686;23.362;2024-01-25T09:55:08;7.97;;;2.92;;
41687;SDS011;27371;42.686;23.362;2024-01-25T09:57:38;9.73;;;4.15;;
41687;SDS011;27371;42.686;23.362;2024-01-25T10:00:05;11.20;;;4.85;;
41687;SDS011;27371;42.686;23.362;2024-01-25T10:02:36;7.28;;;3.15;;
41687;SDS011;27371;42.686;23.362;2024-01-25T10:05:02;8.98;;;2.83;;
41687;SDS011;27371;42.686;23.362;2024-01-25T10:07:37;8.05;;;2.90;;
41687;SDS011;27371;42.686;23.362;2024-01-25T10:10:03;7.20;;;2.40;;
41687;SDS011;27371;42.686;23.362;2024-01-25T10:12:30;9.25;;;2.83;;
41687;SDS011;27371;42.686;23.362;2024-01-25T10:14:56;9.48;;;2.60;;
41687;SDS011;27371;42.686;23.362;2024-01-25T10:17:21;9.73;;;3.35;;
41687;SDS011;27371;42.686;23.362;2024-01-25T10:19:46;10.02;;;3.50;;
41687;SDS011;27371;42.686;23.362;2024-01-25T10:22:12;7.30;;;3.25;;
41687;SDS011;27371;42.686;23.362;2024-01-25T10:24:38;7.53;;;3.88;;
41687;SDS011;27371;42.686;23.362;2024-01-25T10:27:04;10.30;;;3.88;;
41687;SDS011;27371;42.686;23.362;2024-01-25T10:29:29;8.82;;;3.00;;
41687;SDS011;27371;42.686;23.362;2024-01-25T10:31:54;7.00;;;2.70;;
41687;SDS011;27371;42.686;23.362;2024-01-25T10:34:20;7.03;;;2.50;;
41687;SDS011;27371;42.686;23.362;2024-01-25T10:36:45;8.57;;;3.00;;
41687;SDS011;27371;42.686;23.362;2024-01-25T10:39:11;10.15;;;2.97;;
41687;SDS011;27371;42.686;23.362;2024-01-25T10:41:39;9.20;;;3.05;;
41687;SDS011;27371;42.686;23.362;2024-01-25T10:44:05;10.88;;;2.90;;
41687;SDS011;27371;42.686;23.362;2024-01-25T10:46:32;9.52;;;3.08;;
41687;SDS011;27371;42.686;23.362;2024-01-25T10:48:57;8.48;;;2.80;;
41687;SDS011;27371;42.686;23.362;2024-01-25T10:51:24;7.85;;;2.70;;
41687;SDS011;27371;42.686;23.362;2024-01-25T10:53:49;9.95;;;3.67;;
41687;SDS011;27371;42.686;23.362;2024-01-25T10:56:14;12.55;;;3.05;;
41687;SDS011;27371;42.686;23.362;2024-01-25T10:58:40;8.07;;;2.80;;
41687;SDS011;27371;42.686;23.362;2024-01-25T11:01:09;6.82;;;2.70;;
41687;SDS011;27371;42.686;23.362;2024-01-25T11:03:39;10.93;;;2.83;;
41687;SDS011;27371;42.686;23.362;2024-01-25T11:06:05;7.70;;;3.10;;
41687;SDS011;27371;42.686;23.362;2024-01-25T11:08:31;7.15;;;2.60;;
41687;SDS011;27371;42.686;23.362;2024-01-25T11:10:56;10.77;;;2.83;;
41687;SDS011;27371;42.686;23.362;2024-01-25T11:13:26;10.38;;;2.97;;
41687;SDS011;27371;42.686;23.362;2024-01-25T11:15:52;9.68;;;2.80;;
41687;SDS011;27371;42.686;23.362;2024-01-25T11:18:17;8.73;;;2.97;;
41687;SDS011;27371;42.686;23.362;2024-01-25T11:20:46;7.53;;;2.45;;
41687;SDS011;27371;42.686;23.362;2024-01-25T11:23:13;12.35;;;2.70;;
41687;SDS011;27371;42.686;23.362;2024-01-25T11:25:39;8.50;;;2.95;;
41687;SDS011;27371;42.686;23.362;2024-01-25T11:28:04;8.13;;;3.15;;
41687;SDS011;27371;42.686;23.362;2024-01-25T11:30:31;7.10;;;2.70;;
41687;SDS011;27371;42.686;23.362;2024-01-25T11:32:57;10.20;;;2.70;;
41687;SDS011;27371;42.686;23.362;2024-01-25T11:35:22;9.02;;;2.50;;
41687;SDS011;27371;42.686;23.362;2024-01-25T11:37:48;10.63;;;3.40;;
41687;SDS011;27371;42.686;23.362;2024-01-25T11:40:14;6.60;;;1.92;;
41687;SDS011;27371;42.686;23.362;2024-01-25T11:42:40;7.15;;;2.28;;
41687;SDS011;27371;42.686;23.362;2024-01-25T11:45:07;8.98;;;2.42;;
41687;SDS011;27371;42.686;23.362;2024-01-25T11:47:34;7.95;;;2.38;;
41687;SDS011;27371;42.686;23.362;2024-01-25T11:49:59;6.70;;;2.60;;
41687;SDS011;27371;42.686;23.362;2024-01-25T11:52:25;7.88;;;2.13;;
41687;SDS011;27371;42.686;23.362;2024-01-25T11:54:51;14.73;;;5.60;;
41687;SDS011;27371;42.686;23.362;2024-01-25T11:57:17;11.18;;;2.50;;
41687;SDS011;27371;42.686;23.362;2024-01-25T11:59:42;12.70;;;3.05;;
41687;SDS011;27371;42.686;23.362;2024-01-25T12:02:11;7.68;;;2.10;;
41687;SDS011;27371;42.686;23.362;2024-01-25T12:04:36;8.07;;;2.85;;
41687;SDS011;27371;42.686;23.362;2024-01-25T12:07:01;11.32;;;2.33;;
41687;SDS011;27371;42.686;23.362;2024-01-25T12:09:28;8.98;;;2.85;;
41687;SDS011;27371;42.686;23.362;2024-01-25T12:11:53;7.38;;;2.17;;
41687;SDS011;27371;42.686;23.362;2024-01-25T12:14:18;9.57;;;2.67;;
41687;SDS011;27371;42.686;23.362;2024-01-25T12:16:44;7.55;;;1.98;;
41687;SDS011;27371;42.686;23.362;2024-01-25T12:19:09;7.70;;;1.92;;
41687;SDS011;27371;42.686;23.362;2024-01-25T12:21:34;8.70;;;2.28;;
41687;SDS011;27371;42.686;23.362;2024-01-25T12:24:01;8.45;;;2.30;;
41687;SDS011;27371;42.686;23.362;2024-01-25T12:26:26;5.45;;;2.03;;
41687;SDS011;27371;42.686;23.362;2024-01-25T12:28:52;10.48;;;2.80;;
41687;SDS011;27371;42.686;23.362;2024-01-25T12:31:17;10.98;;;3.05;;
41687;SDS011;27371;42.686;23.362;2024-01-25T12:33:43;8.20;;;2.80;;
41687;SDS011;27371;42.686;23.362;2024-01-25T12:36:09;9.98;;;3.50;;
41687;SDS011;27371;42.686;23.362;2024-01-25T12:38:34;9.50;;;3.22;;
41687;SDS011;27371;42.686;23.362;2024-01-25T12:41:00;10.15;;;3.00;;
41687;SDS011;27371;42.686;23.362;2024-01-25T12:43:26;9.23;;;2.10;;
41687;SDS011;27371;42.686;23.362;2024-01-25T12:45:51;7.15;;;2.20;;
41687;SDS011;27371;42.686;23.362;2024-01-25T12:48:17;9.40;;;2.67;;
41687;SDS011;27371;42.686;23.362;2024-01-25T12:50:42;7.60;;;2.65;;
41687;SDS011;27371;42.686;23.362;2024-01-25T12:53:08;7.45;;;2.42;;
41687;SDS011;27371;42.686;23.362;2024-01-25T12:55:35;10.27;;;3.05;;
41687;SDS011;27371;42.686;23.362;2024-01-25T12:58:00;8.43;;;2.40;;
41687;SDS011;27371;42.686;23.362;2024-01-25T13:00:26;12.50;;;3.05;;
41687;SDS011;27371;42.686;23.362;2024-01-25T13:02:51;8.40;;;2.17;;
41687;SDS011;27371;42.686;23.362;2024-01-25T13:05:16;6.65;;;2.20;;
41687;SDS011;27371;42.686;23.362;2024-01-25T13:07:42;7.97;;;1.80;;
41687;SDS011;27371;42.686;23.362;2024-01-25T13:10:10;7.95;;;2.13;;
41687;SDS011;27371;42.686;23.362;2024-01-25T13:12:38;9.75;;;2.65;;
41687;SDS011;27371;42.686;23.362;2024-01-25T13:15:04;7.47;;;2.55;;
41687;SDS011;27371;42.686;23.362;2024-01-25T13:17:30;11.63;;;2.67;;
41687;SDS011;27371;42.686;23.362;2024-01-25T13:19:56;13.98;;;5.07;;
41687;SDS011;27371;42.686;23.362;2024-01-25T13:22:22;8.18;;;2.95;;
41687;SDS011;27371;42.686;23.362;2024-01-25T13:24:49;8.57;;;2.35;;
41687;SDS011;27371;42.686;23.362;2024-01-25T13:27:14;7.28;;;2.30;;
41687;SDS011;27371;42.686;23.362;2024-01-25T13:29:40;8.15;;;2.50;;
41687;SDS011;27371;42.686;23.362;2024-01-25T13:32:05;7.43;;;2.85;;
41687;SDS011;27371;42.686;23.362;2024-01-25T13:34:34;9.68;;;3.03;;
41687;SDS011;27371;42.686;23.362;2024-01-25T13:36:59;7.43;;;2.72;;
41687;SDS011;27371;42.686;23.362;2024-01-25T13:39:25;10.05;;;2.63;;
41687;SDS011;27371;42.686;23.362;2024-01-25T13:41:51;6.85;;;2.10;;
41687;SDS011;27371;42.686;23.362;2024-01-25T13:44:16;9.02;;;2.55;;
41687;SDS011;27371;42.686;23.362;2024-01-25T13:46:41;10.95;;;2.60;;
41687;SDS011;27371;42.686;23.362;2024-01-25T13:49:07;8.25;;;2.58;;
41687;SDS011;27371;42.686;23.362;2024-01-25T13:51:32;9.32;;;2.65;;
41687;SDS011;27371;42.686;23.362;2024-01-25T13:53:57;8.65;;;2.25;;
41687;SDS011;27371;42.686;23.362;2024-01-25T13:56:23;6.45;;;2.35;;
41687;SDS011;27371;42.686;23.362;2024-01-25T13:58:48;11.68;;;2.88;;
41687;SDS011;27371;42.686;23.362;2024-01-25T14:01:14;7.97;;;2.50;;
41687;SDS011;27371;42.686;23.362;2024-01-25T14:03:39;8.20;;;2.47;;
41687;SDS011;27371;42.686;23.362;2024-01-25T14:06:04;8.80;;;3.20;;
41687;SDS011;27371;42.686;23.362;2024-01-25T14:08:30;10.23;;;3.08;;
41687;SDS011;27371;42.686;23.362;2024-01-25T14:10:56;10.10;;;2.65;;
41687;SDS011;27371;42.686;23.362;2024-01-25T14:13:21;10.07;;;2.80;;
41687;SDS011;27371;42.686;23.362;2024-01-25T14:15:47;9.73;;;2.78;;
41687;SDS011;27371;42.686;23.362;2024-01-25T14:18:12;10.40;;;2.53;;
41687;SDS011;27371;42.686;23.362;2024-01-25T14:20:38;9.82;;;2.63;;
41687;SDS011;27371;42.686;23.362;2024-01-25T14:23:03;10.73;;;2.80;;